sensor_id;sensor_type;location;lat;lon;timestamp;temperature;humidity
16732;DHT22;8484;50.904;9.192;2023-08-07T00:01:12;13.00;99.90
16732;DHT22;8484;50.904;9.192;2023-08-07T00:03:39;13.00;99.90
16732;DHT22;8484;50.904;9.192;2023-08-07T00:06:06;13.00;99.90
16732;DHT22;8484;50.904;9.192;2023-08-07T00:08:34;13.10;99.90
16732;DHT22;8484;50.904;9.192;2023-08-07T00:11:05;13.10;99.90
16732;DHT22;8484;50.904;9.192;2023-08-07T00:13:32;13.20;99.90
16732;DHT22;8484;50.904;9.192;2023-08-07T00:15:59;13.20;99.90
16732;DHT22;8484;50.904;9.192;2023-08-07T00:18:25;13.10;99.90
16732;DHT22;8484;50.904;9.192;2023-08-07T00:20:52;13.00;99.90
16732;DHT22;8484;50.904;9.192;2023-08-07T00:23:19;13.00;99.90
16732;DHT22;8484;50.904;9.192;2023-08-07T00:25:47;13.10;99.90
16732;DHT22;8484;50.904;9.192;2023-08-07T00:28:14;13.10;99.90
16732;DHT22;8484;50.904;9.192;2023-08-07T00:30:41;13.20;99.90
16732;DHT22;8484;50.904;9.192;2023-08-07T00:33:08;13.00;99.90
16732;DHT22;8484;50.904;9.192;2023-08-07T00:35:35;12.90;99.90
16732;DHT22;8484;50.904;9.192;2023-08-07T00:38:02;13.00;99.90
16732;DHT22;8484;50.904;9.192;2023-08-07T00:40:36;13.10;99.90
16732;DHT22;8484;50.904;9.192;2023-08-07T00:43:04;13.00;99.90
16732;DHT22;8484;50.904;9.192;2023-08-07T00:45:35;13.00;99.90
16732;DHT22;8484;50.904;9.192;2023-08-07T00:48:03;13.00;99.90
16732;DHT22;8484;50.904;9.192;2023-08-07T00:50:31;13.00;99.90
16732;DHT22;8484;50.904;9.192;2023-08-07T00:52:58;13.00;99.90
16732;DHT22;8484;50.904;9.192;2023-08-07T00:55:25;12.90;99.90
16732;DHT22;8484;50.904;9.192;2023-08-07T00:57:52;12.90;99.90
16732;DHT22;8484;50.904;9.192;2023-08-07T01:00:21;12.90;99.90
16732;DHT22;8484;50.904;9.192;2023-08-07T01:02:48;13.00;99.90
16732;DHT22;8484;50.904;9.192;2023-08-07T01:05:17;13.00;99.90
16732;DHT22;8484;50.904;9.192;2023-08-07T01:07:46;12.90;99.90
16732;DHT22;8484;50.904;9.192;2023-08-07T01:10:13;12.90;99.90
16732;DHT22;8484;50.904;9.192;2023-08-07T01:12:45;12.90;99.90
16732;DHT22;8484;50.904;9.192;2023-08-07T01:15:17;12.90;99.90
16732;DHT22;8484;50.904;9.192;2023-08-07T01:17:48;12.80;99.90
16732;DHT22;8484;50.904;9.192;2023-08-07T01:20:16;12.90;99.90
16732;DHT22;8484;50.904;9.192;2023-08-07T01:22:44;12.90;99.90
16732;DHT22;8484;50.904;9.192;2023-08-07T01:25:11;12.90;99.90
16732;DHT22;8484;50.904;9.192;2023-08-07T01:27:44;12.90;99.90
16732;DHT22;8484;50.904;9.192;2023-08-07T01:30:19;12.80;99.90
16732;DHT22;8484;50.904;9.192;2023-08-07T01:32:56;12.80;99.90
16732;DHT22;8484;50.904;9.192;2023-08-07T01:35:27;12.90;99.90
16732;DHT22;8484;50.904;9.192;2023-08-07T01:37:57;13.00;99.90
16732;DHT22;8484;50.904;9.192;2023-08-07T01:40:25;12.90;99.90
16732;DHT22;8484;50.904;9.192;2023-08-07T01:42:53;12.90;99.90
16732;DHT22;8484;50.904;9.192;2023-08-07T01:45:24;12.90;99.90
16732;DHT22;8484;50.904;9.192;2023-08-07T01:47:52;13.00;99.90
16732;DHT22;8484;50.904;9.192;2023-08-07T01:50:19;12.90;99.90
16732;DHT22;8484;50.904;9.192;2023-08-07T01:52:46;13.00;99.90
16732;DHT22;8484;50.904;9.192;2023-08-07T01:55:15;13.00;99.90
16732;DHT22;8484;50.904;9.192;2023-08-07T01:57:42;13.00;99.90
16732;DHT22;8484;50.904;9.192;2023-08-07T02:00:10;13.00;99.90
16732;DHT22;8484;50.904;9.192;2023-08-07T02:02:37;12.90;99.90
16732;DHT22;8484;50.904;9.192;2023-08-07T02:05:05;13.00;99.90
16732;DHT22;8484;50.904;9.192;2023-08-07T02:07:32;13.00;99.90
16732;DHT22;8484;50.904;9.192;2023-08-07T02:09:59;12.90;99.90
16732;DHT22;8484;50.904;9.192;2023-08-07T02:12:27;12.90;99.90
16732;DHT22;8484;50.904;9.192;2023-08-07T02:15:03;12.80;99.90
16732;DHT22;8484;50.904;9.192;2023-08-07T02:17:30;12.90;99.90
16732;DHT22;8484;50.904;9.192;2023-08-07T02:19:58;12.90;99.90
16732;DHT22;8484;50.904;9.192;2023-08-07T02:22:25;12.80;99.90
16732;DHT22;8484;50.904;9.192;2023-08-07T02:24:52;12.70;99.90
16732;DHT22;8484;50.904;9.192;2023-08-07T02:27:19;12.70;99.90
16732;DHT22;8484;50.904;9.192;2023-08-07T02:29:47;12.60;99.90
16732;DHT22;8484;50.904;9.192;2023-08-07T02:32:14;12.60;99.90
16732;DHT22;8484;50.904;9.192;2023-08-07T02:34:41;12.60;99.90
16732;DHT22;8484;50.904;9.192;2023-08-07T02:37:07;12.60;99.90
16732;DHT22;8484;50.904;9.192;2023-08-07T02:39:34;12.60;99.90
16732;DHT22;8484;50.904;9.192;2023-08-07T02:42:01;12.60;99.90
16732;DHT22;8484;50.904;9.192;2023-08-07T02:44:28;12.60;99.90
16732;DHT22;8484;50.904;9.192;2023-08-07T02:46:56;12.60;99.90
16732;DHT22;8484;50.904;9.192;2023-08-07T02:49:23;12.50;99.90
16732;DHT22;8484;50.904;9.192;2023-08-07T02:51:50;12.50;99.90
16732;DHT22;8484;50.904;9.192;2023-08-07T02:54:17;12.50;99.90
16732;DHT22;8484;50.904;9.192;2023-08-07T02:56:44;12.50;99.90
16732;DHT22;8484;50.904;9.192;2023-08-07T02:59:10;12.50;99.90
16732;DHT22;8484;50.904;9.192;2023-08-07T03:01:37;12.60;99.90
16732;DHT22;8484;50.904;9.192;2023-08-07T03:04:05;12.50;99.90
16732;DHT22;8484;50.904;9.192;2023-08-07T03:06:32;12.40;99.90
16732;DHT22;8484;50.904;9.192;2023-08-07T03:08:59;12.40;99.90
16732;DHT22;8484;50.904;9.192;2023-08-07T03:11:26;12.40;99.90
16732;DHT22;8484;50.904;9.192;2023-08-07T03:13:53;12.40;99.90
16732;DHT22;8484;50.904;9.192;2023-08-07T03:16:20;12.30;99.90
16732;DHT22;8484;50.904;9.192;2023-08-07T03:18:47;12.30;99.90
16732;DHT22;8484;50.904;9.192;2023-08-07T03:21:15;12.30;99.90
16732;DHT22;8484;50.904;9.192;2023-08-07T03:23:42;12.20;99.90
16732;DHT22;8484;50.904;9.192;2023-08-07T03:26:11;12.20;99.90
16732;DHT22;8484;50.904;9.192;2023-08-07T03:28:38;12.20;99.90
16732;DHT22;8484;50.904;9.192;2023-08-07T03:31:05;12.10;99.90
16732;DHT22;8484;50.904;9.192;2023-08-07T03:33:32;12.10;99.90
16732;DHT22;8484;50.904;9.192;2023-08-07T03:35:59;12.10;99.90
16732;DHT22;8484;50.904;9.192;2023-08-07T03:38:27;12.10;99.90
16732;DHT22;8484;50.904;9.192;2023-08-07T03:40:54;12.20;99.90
16732;DHT22;8484;50.904;9.192;2023-08-07T03:43:21;12.10;99.90
16732;DHT22;8484;50.904;9.192;2023-08-07T03:45:54;12.20;99.90
16732;DHT22;8484;50.904;9.192;2023-08-07T03:48:21;12.20;99.90
16732;DHT22;8484;50.904;9.192;2023-08-07T03:50:47;12.20;99.90
16732;DHT22;8484;50.904;9.192;2023-08-07T03:53:14;12.20;99.90
16732;DHT22;8484;50.904;9.192;2023-08-07T03:55:43;12.20;99.90
16732;DHT22;8484;50.904;9.192;2023-08-07T03:58:10;12.20;99.90
16732;DHT22;8484;50.904;9.192;2023-08-07T04:00:38;12.30;99.90
16732;DHT22;8484;50.904;9.192;2023-08-07T04:03:05;12.30;99.90
16732;DHT22;8484;50.904;9.192;2023-08-07T04:05:33;12.30;99.90
16732;DHT22;8484;50.904;9.192;2023-08-07T04:08:01;12.30;99.90
16732;DHT22;8484;50.904;9.192;2023-08-07T04:10:27;12.30;99.90
16732;DHT22;8484;50.904;9.192;2023-08-07T04:12:56;12.40;99.90
16732;DHT22;8484;50.904;9.192;2023-08-07T04:15:22;12.30;99.90
16732;DHT22;8484;50.904;9.192;2023-08-07T04:17:49;12.20;99.90
16732;DHT22;8484;50.904;9.192;2023-08-07T04:20:16;12.30;99.90
16732;DHT22;8484;50.904;9.192;2023-08-07T04:22:43;12.30;99.90
16732;DHT22;8484;50.904;9.192;2023-08-07T04:25:10;12.40;99.90
16732;DHT22;8484;50.904;9.192;2023-08-07T04:27:37;12.40;99.90
16732;DHT22;8484;50.904;9.192;2023-08-07T04:30:07;12.50;99.90
16732;DHT22;8484;50.904;9.192;2023-08-07T04:32:34;12.50;99.90
16732;DHT22;8484;50.904;9.192;2023-08-07T04:35:01;12.50;99.90
16732;DHT22;8484;50.904;9.192;2023-08-07T04:37:28;12.60;99.90
16732;DHT22;8484;50.904;9.192;2023-08-07T04:39:56;12.60;99.90
16732;DHT22;8484;50.904;9.192;2023-08-07T04:42:23;12.50;99.90
16732;DHT22;8484;50.904;9.192;2023-08-07T04:44:50;12.50;99.90
16732;DHT22;8484;50.904;9.192;2023-08-07T04:47:18;12.50;99.90
16732;DHT22;8484;50.904;9.192;2023-08-07T04:49:45;12.50;99.90
16732;DHT22;8484;50.904;9.192;2023-08-07T04:52:12;12.50;99.90
16732;DHT22;8484;50.904;9.192;2023-08-07T04:54:39;12.50;99.90
16732;DHT22;8484;50.904;9.192;2023-08-07T04:57:06;12.50;99.90
16732;DHT22;8484;50.904;9.192;2023-08-07T04:59:33;12.60;99.90
16732;DHT22;8484;50.904;9.192;2023-08-07T05:02:01;12.50;99.90
16732;DHT22;8484;50.904;9.192;2023-08-07T05:04:29;12.60;99.90
16732;DHT22;8484;50.904;9.192;2023-08-07T05:06:56;12.70;99.90
16732;DHT22;8484;50.904;9.192;2023-08-07T05:09:23;12.60;99.90
16732;DHT22;8484;50.904;9.192;2023-08-07T05:11:50;12.60;99.90
16732;DHT22;8484;50.904;9.192;2023-08-07T05:14:17;12.60;99.90
16732;DHT22;8484;50.904;9.192;2023-08-07T05:16:44;12.60;99.90
16732;DHT22;8484;50.904;9.192;2023-08-07T05:19:11;12.60;99.90
16732;DHT22;8484;50.904;9.192;2023-08-07T05:21:39;12.60;99.90
16732;DHT22;8484;50.904;9.192;2023-08-07T05:24:06;12.60;99.90
16732;DHT22;8484;50.904;9.192;2023-08-07T05:26:33;12.50;99.90
16732;DHT22;8484;50.904;9.192;2023-08-07T05:29:00;12.70;99.90
16732;DHT22;8484;50.904;9.192;2023-08-07T05:31:27;12.60;99.90
16732;DHT22;8484;50.904;9.192;2023-08-07T05:33:54;12.70;99.90
16732;DHT22;8484;50.904;9.192;2023-08-07T05:36:20;12.60;99.90
16732;DHT22;8484;50.904;9.192;2023-08-07T05:38:49;12.70;99.90
16732;DHT22;8484;50.904;9.192;2023-08-07T05:41:15;12.70;99.90
16732;DHT22;8484;50.904;9.192;2023-08-07T05:43:42;12.70;99.90
16732;DHT22;8484;50.904;9.192;2023-08-07T05:46:12;12.60;99.90
16732;DHT22;8484;50.904;9.192;2023-08-07T05:48:39;12.70;99.90
16732;DHT22;8484;50.904;9.192;2023-08-07T05:51:06;12.70;99.90
16732;DHT22;8484;50.904;9.192;2023-08-07T05:53:34;12.60;99.90
16732;DHT22;8484;50.904;9.192;2023-08-07T05:56:03;12.70;99.90
16732;DHT22;8484;50.904;9.192;2023-08-07T05:58:30;12.80;99.90
16732;DHT22;8484;50.904;9.192;2023-08-07T06:00:57;12.70;99.90
16732;DHT22;8484;50.904;9.192;2023-08-07T06:03:24;12.70;99.90
16732;DHT22;8484;50.904;9.192;2023-08-07T06:05:51;12.80;99.90
16732;DHT22;8484;50.904;9.192;2023-08-07T06:08:18;12.80;99.90
16732;DHT22;8484;50.904;9.192;2023-08-07T06:10:45;12.80;99.90
16732;DHT22;8484;50.904;9.192;2023-08-07T06:13:13;12.80;99.90
16732;DHT22;8484;50.904;9.192;2023-08-07T06:15:40;12.80;99.90
16732;DHT22;8484;50.904;9.192;2023-08-07T06:18:08;12.70;99.90
16732;DHT22;8484;50.904;9.192;2023-08-07T06:20:35;12.80;99.90
16732;DHT22;8484;50.904;9.192;2023-08-07T06:23:02;12.80;99.90
16732;DHT22;8484;50.904;9.192;2023-08-07T06:25:29;12.80;99.90
16732;DHT22;8484;50.904;9.192;2023-08-07T06:27:56;12.80;99.90
16732;DHT22;8484;50.904;9.192;2023-08-07T06:30:25;12.90;99.90
16732;DHT22;8484;50.904;9.192;2023-08-07T06:32:52;12.80;99.90
16732;DHT22;8484;50.904;9.192;2023-08-07T06:35:18;13.00;99.90
16732;DHT22;8484;50.904;9.192;2023-08-07T06:37:45;12.90;99.90
16732;DHT22;8484;50.904;9.192;2023-08-07T06:40:12;13.00;99.90
16732;DHT22;8484;50.904;9.192;2023-08-07T06:42:42;13.00;99.90
16732;DHT22;8484;50.904;9.192;2023-08-07T06:45:09;13.00;99.90
16732;DHT22;8484;50.904;9.192;2023-08-07T06:47:38;13.00;99.90
16732;DHT22;8484;50.904;9.192;2023-08-07T06:50:05;13.10;99.90
16732;DHT22;8484;50.904;9.192;2023-08-07T06:52:32;13.10;99.90
16732;DHT22;8484;50.904;9.192;2023-08-07T06:54:59;13.20;99.90
16732;DHT22;8484;50.904;9.192;2023-08-07T06:57:26;13.10;99.90
16732;DHT22;8484;50.904;9.192;2023-08-07T06:59:53;13.10;99.90
16732;DHT22;8484;50.904;9.192;2023-08-07T07:02:20;13.10;99.90
16732;DHT22;8484;50.904;9.192;2023-08-07T07:04:48;13.40;99.90
16732;DHT22;8484;50.904;9.192;2023-08-07T07:07:15;13.40;99.90
16732;DHT22;8484;50.904;9.192;2023-08-07T07:09:42;13.40;99.90
16732;DHT22;8484;50.904;9.192;2023-08-07T07:12:09;13.30;99.90
16732;DHT22;8484;50.904;9.192;2023-08-07T07:14:36;13.20;99.90
16732;DHT22;8484;50.904;9.192;2023-08-07T07:17:03;13.30;99.90
16732;DHT22;8484;50.904;9.192;2023-08-07T07:19:30;13.30;99.90
16732;DHT22;8484;50.904;9.192;2023-08-07T07:21:58;13.30;99.90
16732;DHT22;8484;50.904;9.192;2023-08-07T07:24:25;13.30;99.90
16732;DHT22;8484;50.904;9.192;2023-08-07T07:26:52;13.30;99.90
16732;DHT22;8484;50.904;9.192;2023-08-07T07:29:20;13.30;99.90
16732;DHT22;8484;50.904;9.192;2023-08-07T07:31:47;13.40;99.90
16732;DHT22;8484;50.904;9.192;2023-08-07T07:34:15;13.50;99.90
16732;DHT22;8484;50.904;9.192;2023-08-07T07:36:42;13.40;99.90
16732;DHT22;8484;50.904;9.192;2023-08-07T07:39:11;13.40;99.90
16732;DHT22;8484;50.904;9.192;2023-08-07T07:41:38;13.60;99.90
16732;DHT22;8484;50.904;9.192;2023-08-07T07:44:05;13.60;99.90
16732;DHT22;8484;50.904;9.192;2023-08-07T07:46:32;13.50;99.90
16732;DHT22;8484;50.904;9.192;2023-08-07T07:48:59;13.50;99.90
16732;DHT22;8484;50.904;9.192;2023-08-07T07:51:26;13.60;99.90
16732;DHT22;8484;50.904;9.192;2023-08-07T07:53:54;13.50;99.90
16732;DHT22;8484;50.904;9.192;2023-08-07T07:56:23;13.80;99.90
16732;DHT22;8484;50.904;9.192;2023-08-07T07:58:50;13.90;99.90
16732;DHT22;8484;50.904;9.192;2023-08-07T08:01:17;14.20;99.90
16732;DHT22;8484;50.904;9.192;2023-08-07T08:03:45;14.40;99.90
16732;DHT22;8484;50.904;9.192;2023-08-07T08:06:16;14.60;99.90
16732;DHT22;8484;50.904;9.192;2023-08-07T08:08:43;14.80;99.90
16732;DHT22;8484;50.904;9.192;2023-08-07T08:11:10;14.50;99.90
16732;DHT22;8484;50.904;9.192;2023-08-07T08:13:39;14.40;99.90
16732;DHT22;8484;50.904;9.192;2023-08-07T08:16:06;14.40;99.90
16732;DHT22;8484;50.904;9.192;2023-08-07T08:18:33;14.50;99.90
16732;DHT22;8484;50.904;9.192;2023-08-07T08:21:00;14.40;99.90
16732;DHT22;8484;50.904;9.192;2023-08-07T08:23:27;14.60;99.90
16732;DHT22;8484;50.904;9.192;2023-08-07T08:25:54;14.50;99.90
16732;DHT22;8484;50.904;9.192;2023-08-07T08:28:21;14.40;99.90
16732;DHT22;8484;50.904;9.192;2023-08-07T08:30:49;14.70;99.90
16732;DHT22;8484;50.904;9.192;2023-08-07T08:33:16;14.80;99.90
16732;DHT22;8484;50.904;9.192;2023-08-07T08:35:43;14.60;99.90
16732;DHT22;8484;50.904;9.192;2023-08-07T08:38:10;14.40;99.90
16732;DHT22;8484;50.904;9.192;2023-08-07T08:40:38;14.50;99.90
16732;DHT22;8484;50.904;9.192;2023-08-07T08:43:06;14.30;99.90
16732;DHT22;8484;50.904;9.192;2023-08-07T08:45:33;14.50;99.90
16732;DHT22;8484;50.904;9.192;2023-08-07T08:48:05;14.50;99.90
16732;DHT22;8484;50.904;9.192;2023-08-07T08:50:34;14.30;99.90
16732;DHT22;8484;50.904;9.192;2023-08-07T08:53:03;14.30;99.90
16732;DHT22;8484;50.904;9.192;2023-08-07T08:55:30;14.30;99.90
16732;DHT22;8484;50.904;9.192;2023-08-07T08:57:58;14.30;99.90
16732;DHT22;8484;50.904;9.192;2023-08-07T09:00:27;14.30;99.90
16732;DHT22;8484;50.904;9.192;2023-08-07T09:02:56;14.20;99.90
16732;DHT22;8484;50.904;9.192;2023-08-07T09:05:25;14.20;99.90
16732;DHT22;8484;50.904;9.192;2023-08-07T09:07:54;14.40;99.90
16732;DHT22;8484;50.904;9.192;2023-08-07T09:10:22;14.50;99.90
16732;DHT22;8484;50.904;9.192;2023-08-07T09:12:53;14.90;99.90
16732;DHT22;8484;50.904;9.192;2023-08-07T09:15:22;15.10;99.90
16732;DHT22;8484;50.904;9.192;2023-08-07T09:17:51;14.90;99.90
16732;DHT22;8484;50.904;9.192;2023-08-07T09:20:18;15.40;99.90
16732;DHT22;8484;50.904;9.192;2023-08-07T09:22:46;15.20;99.90
16732;DHT22;8484;50.904;9.192;2023-08-07T09:25:14;15.00;99.90
16732;DHT22;8484;50.904;9.192;2023-08-07T09:27:41;14.70;99.90
16732;DHT22;8484;50.904;9.192;2023-08-07T09:30:09;14.20;99.90
16732;DHT22;8484;50.904;9.192;2023-08-07T09:32:41;14.60;99.90
16732;DHT22;8484;50.904;9.192;2023-08-07T09:35:09;15.10;99.90
16732;DHT22;8484;50.904;9.192;2023-08-07T09:37:36;15.40;99.90
16732;DHT22;8484;50.904;9.192;2023-08-07T09:40:08;15.70;99.90
16732;DHT22;8484;50.904;9.192;2023-08-07T09:42:39;15.50;99.90
16732;DHT22;8484;50.904;9.192;2023-08-07T09:45:19;15.40;99.90
16732;DHT22;8484;50.904;9.192;2023-08-07T09:47:46;15.40;99.90
16732;DHT22;8484;50.904;9.192;2023-08-07T09:50:15;15.10;99.90
16732;DHT22;8484;50.904;9.192;2023-08-07T09:52:46;14.90;99.90
16732;DHT22;8484;50.904;9.192;2023-08-07T09:55:14;15.20;99.90
16732;DHT22;8484;50.904;9.192;2023-08-07T09:57:42;15.10;99.90
16732;DHT22;8484;50.904;9.192;2023-08-07T10:00:10;14.70;99.90
16732;DHT22;8484;50.904;9.192;2023-08-07T10:02:39;14.60;99.90
16732;DHT22;8484;50.904;9.192;2023-08-07T10:05:08;14.50;99.90
16732;DHT22;8484;50.904;9.192;2023-08-07T10:07:37;14.20;99.90
16732;DHT22;8484;50.904;9.192;2023-08-07T10:10:05;14.30;99.90
16732;DHT22;8484;50.904;9.192;2023-08-07T10:12:33;14.20;99.90
16732;DHT22;8484;50.904;9.192;2023-08-07T10:15:00;14.30;99.90
16732;DHT22;8484;50.904;9.192;2023-08-07T10:17:28;14.20;99.90
16732;DHT22;8484;50.904;9.192;2023-08-07T10:19:56;14.50;99.90
16732;DHT22;8484;50.904;9.192;2023-08-07T10:22:25;14.50;99.90
16732;DHT22;8484;50.904;9.192;2023-08-07T10:24:53;14.40;99.90
16732;DHT22;8484;50.904;9.192;2023-08-07T10:27:23;14.40;99.90
16732;DHT22;8484;50.904;9.192;2023-08-07T10:29:54;14.20;99.90
16732;DHT22;8484;50.904;9.192;2023-08-07T10:32:25;14.40;99.90
16732;DHT22;8484;50.904;9.192;2023-08-07T10:34:53;14.50;99.90
16732;DHT22;8484;50.904;9.192;2023-08-07T10:37:32;14.90;99.90
16732;DHT22;8484;50.904;9.192;2023-08-07T10:40:05;14.90;99.90
16732;DHT22;8484;50.904;9.192;2023-08-07T10:42:56;14.70;99.90
16732;DHT22;8484;50.904;9.192;2023-08-07T10:45:26;14.90;99.90
16732;DHT22;8484;50.904;9.192;2023-08-07T10:47:58;15.10;99.90
16732;DHT22;8484;50.904;9.192;2023-08-07T10:50:29;15.50;99.90
16732;DHT22;8484;50.904;9.192;2023-08-07T10:52:56;15.40;99.90
16732;DHT22;8484;50.904;9.192;2023-08-07T10:55:23;15.30;99.90
16732;DHT22;8484;50.904;9.192;2023-08-07T10:57:50;15.00;99.90
16732;DHT22;8484;50.904;9.192;2023-08-07T11:00:26;14.70;99.90
16732;DHT22;8484;50.904;9.192;2023-08-07T11:02:54;14.70;99.90
16732;DHT22;8484;50.904;9.192;2023-08-07T11:05:21;14.90;99.90
16732;DHT22;8484;50.904;9.192;2023-08-07T11:07:51;15.00;99.90
16732;DHT22;8484;50.904;9.192;2023-08-07T11:10:20;15.10;99.90
16732;DHT22;8484;50.904;9.192;2023-08-07T11:12:48;15.20;99.90
16732;DHT22;8484;50.904;9.192;2023-08-07T11:15:15;15.50;99.90
16732;DHT22;8484;50.904;9.192;2023-08-07T11:17:44;15.60;99.90
16732;DHT22;8484;50.904;9.192;2023-08-07T11:20:11;15.80;99.90
16732;DHT22;8484;50.904;9.192;2023-08-07T11:22:39;15.40;99.90
16732;DHT22;8484;50.904;9.192;2023-08-07T11:25:07;15.70;99.90
16732;DHT22;8484;50.904;9.192;2023-08-07T11:27:39;15.60;99.90
16732;DHT22;8484;50.904;9.192;2023-08-07T11:30:11;16.10;99.90
16732;DHT22;8484;50.904;9.192;2023-08-07T11:32:38;16.30;99.90
16732;DHT22;8484;50.904;9.192;2023-08-07T11:35:07;16.40;99.90
16732;DHT22;8484;50.904;9.192;2023-08-07T11:37:34;16.40;99.90
16732;DHT22;8484;50.904;9.192;2023-08-07T11:40:02;16.80;99.90
16732;DHT22;8484;50.904;9.192;2023-08-07T11:42:29;16.60;99.90
16732;DHT22;8484;50.904;9.192;2023-08-07T11:44:56;16.30;99.90
16732;DHT22;8484;50.904;9.192;2023-08-07T11:47:23;16.00;99.90
16732;DHT22;8484;50.904;9.192;2023-08-07T11:49:52;15.90;99.90
16732;DHT22;8484;50.904;9.192;2023-08-07T11:52:21;15.90;99.90
16732;DHT22;8484;50.904;9.192;2023-08-07T11:54:49;15.70;99.90
16732;DHT22;8484;50.904;9.192;2023-08-07T11:57:17;15.90;99.90
16732;DHT22;8484;50.904;9.192;2023-08-07T11:59:48;16.20;99.90
16732;DHT22;8484;50.904;9.192;2023-08-07T12:02:16;16.10;99.90
16732;DHT22;8484;50.904;9.192;2023-08-07T12:04:43;16.10;99.90
16732;DHT22;8484;50.904;9.192;2023-08-07T12:07:10;15.90;99.90
16732;DHT22;8484;50.904;9.192;2023-08-07T12:09:41;16.00;99.90
16732;DHT22;8484;50.904;9.192;2023-08-07T12:12:10;16.10;99.90
16732;DHT22;8484;50.904;9.192;2023-08-07T12:14:38;16.30;99.90
16732;DHT22;8484;50.904;9.192;2023-08-07T12:17:05;16.90;99.90
16732;DHT22;8484;50.904;9.192;2023-08-07T12:19:38;17.30;99.90
16732;DHT22;8484;50.904;9.192;2023-08-07T12:22:06;18.50;99.90
16732;DHT22;8484;50.904;9.192;2023-08-07T12:24:35;19.00;99.90
16732;DHT22;8484;50.904;9.192;2023-08-07T12:27:04;19.10;99.90
16732;DHT22;8484;50.904;9.192;2023-08-07T12:29:31;18.80;99.90
16732;DHT22;8484;50.904;9.192;2023-08-07T12:31:58;18.70;99.90
16732;DHT22;8484;50.904;9.192;2023-08-07T12:34:26;18.10;99.90
16732;DHT22;8484;50.904;9.192;2023-08-07T12:36:53;17.80;99.90
16732;DHT22;8484;50.904;9.192;2023-08-07T12:39:20;17.00;99.90
16732;DHT22;8484;50.904;9.192;2023-08-07T12:41:47;16.70;99.90
16732;DHT22;8484;50.904;9.192;2023-08-07T12:44:16;16.40;99.90
16732;DHT22;8484;50.904;9.192;2023-08-07T12:46:43;16.10;99.90
16732;DHT22;8484;50.904;9.192;2023-08-07T12:49:10;16.20;99.90
16732;DHT22;8484;50.904;9.192;2023-08-07T12:51:37;16.40;99.90
16732;DHT22;8484;50.904;9.192;2023-08-07T12:54:04;17.20;99.90
16732;DHT22;8484;50.904;9.192;2023-08-07T12:56:34;17.20;99.90
16732;DHT22;8484;50.904;9.192;2023-08-07T12:59:01;17.30;99.90
16732;DHT22;8484;50.904;9.192;2023-08-07T13:01:29;17.70;99.90
16732;DHT22;8484;50.904;9.192;2023-08-07T13:04:11;18.40;99.90
16732;DHT22;8484;50.904;9.192;2023-08-07T13:06:40;18.40;99.90
16732;DHT22;8484;50.904;9.192;2023-08-07T13:09:07;19.00;99.90
16732;DHT22;8484;50.904;9.192;2023-08-07T13:11:34;19.80;99.90
16732;DHT22;8484;50.904;9.192;2023-08-07T13:14:01;20.30;99.90
16732;DHT22;8484;50.904;9.192;2023-08-07T13:16:30;20.20;99.90
16732;DHT22;8484;50.904;9.192;2023-08-07T13:18:57;19.90;99.90
16732;DHT22;8484;50.904;9.192;2023-08-07T13:21:23;20.10;99.90
16732;DHT22;8484;50.904;9.192;2023-08-07T13:23:50;19.60;99.90
16732;DHT22;8484;50.904;9.192;2023-08-07T13:26:17;19.70;99.90
16732;DHT22;8484;50.904;9.192;2023-08-07T13:28:44;18.40;99.90
16732;DHT22;8484;50.904;9.192;2023-08-07T13:31:11;18.80;99.90
16732;DHT22;8484;50.904;9.192;2023-08-07T13:33:39;18.80;99.90
16732;DHT22;8484;50.904;9.192;2023-08-07T13:36:06;19.50;99.90
16732;DHT22;8484;50.904;9.192;2023-08-07T13:38:33;19.70;99.90
16732;DHT22;8484;50.904;9.192;2023-08-07T13:41:00;19.10;99.90
16732;DHT22;8484;50.904;9.192;2023-08-07T13:43:31;18.80;99.90
16732;DHT22;8484;50.904;9.192;2023-08-07T13:45:57;19.10;99.90
16732;DHT22;8484;50.904;9.192;2023-08-07T13:48:24;19.70;99.90
16732;DHT22;8484;50.904;9.192;2023-08-07T13:50:54;19.80;99.90
16732;DHT22;8484;50.904;9.192;2023-08-07T13:53:21;19.50;99.90
16732;DHT22;8484;50.904;9.192;2023-08-07T13:55:49;20.20;99.90
16732;DHT22;8484;50.904;9.192;2023-08-07T13:58:16;20.00;99.90
16732;DHT22;8484;50.904;9.192;2023-08-07T14:00:43;19.80;99.90
16732;DHT22;8484;50.904;9.192;2023-08-07T14:03:10;19.80;99.90
16732;DHT22;8484;50.904;9.192;2023-08-07T14:05:38;19.10;99.90
16732;DHT22;8484;50.904;9.192;2023-08-07T14:08:06;19.20;99.90
16732;DHT22;8484;50.904;9.192;2023-08-07T14:10:35;19.40;99.90
16732;DHT22;8484;50.904;9.192;2023-08-07T14:13:02;20.00;99.90
16732;DHT22;8484;50.904;9.192;2023-08-07T14:15:29;19.80;99.90
16732;DHT22;8484;50.904;9.192;2023-08-07T14:17:56;18.90;99.90
16732;DHT22;8484;50.904;9.192;2023-08-07T14:20:23;19.50;99.90
16732;DHT22;8484;50.904;9.192;2023-08-07T14:22:50;19.90;99.90
16732;DHT22;8484;50.904;9.192;2023-08-07T14:25:18;20.20;99.90
16732;DHT22;8484;50.904;9.192;2023-08-07T14:27:47;18.80;99.90
16732;DHT22;8484;50.904;9.192;2023-08-07T14:30:14;18.80;99.90
16732;DHT22;8484;50.904;9.192;2023-08-07T14:32:41;18.60;99.90
16732;DHT22;8484;50.904;9.192;2023-08-07T14:35:09;18.20;99.90
16732;DHT22;8484;50.904;9.192;2023-08-07T14:37:36;18.80;99.90
16732;DHT22;8484;50.904;9.192;2023-08-07T14:40:03;18.60;99.90
16732;DHT22;8484;50.904;9.192;2023-08-07T14:42:32;19.10;99.90
16732;DHT22;8484;50.904;9.192;2023-08-07T14:44:59;19.30;99.90
16732;DHT22;8484;50.904;9.192;2023-08-07T14:47:26;18.90;99.90
16732;DHT22;8484;50.904;9.192;2023-08-07T14:49:53;19.10;99.90
16732;DHT22;8484;50.904;9.192;2023-08-07T14:52:20;19.10;99.90
16732;DHT22;8484;50.904;9.192;2023-08-07T14:54:46;19.20;99.90
16732;DHT22;8484;50.904;9.192;2023-08-07T14:57:13;19.40;99.90
16732;DHT22;8484;50.904;9.192;2023-08-07T14:59:42;19.50;99.90
16732;DHT22;8484;50.904;9.192;2023-08-07T15:02:08;19.50;99.90
16732;DHT22;8484;50.904;9.192;2023-08-07T15:04:35;19.90;99.90
16732;DHT22;8484;50.904;9.192;2023-08-07T15:07:03;20.00;99.90
16732;DHT22;8484;50.904;9.192;2023-08-07T15:09:30;20.00;99.90
16732;DHT22;8484;50.904;9.192;2023-08-07T15:11:57;19.70;99.90
16732;DHT22;8484;50.904;9.192;2023-08-07T15:14:23;19.80;99.90
16732;DHT22;8484;50.904;9.192;2023-08-07T15:16:52;19.50;99.90
16732;DHT22;8484;50.904;9.192;2023-08-07T15:19:19;20.20;99.90
16732;DHT22;8484;50.904;9.192;2023-08-07T15:21:45;20.00;99.90
16732;DHT22;8484;50.904;9.192;2023-08-07T15:24:12;19.80;99.90
16732;DHT22;8484;50.904;9.192;2023-08-07T15:26:39;19.40;99.90
16732;DHT22;8484;50.904;9.192;2023-08-07T15:29:06;19.00;99.90
16732;DHT22;8484;50.904;9.192;2023-08-07T15:31:33;18.50;99.90
16732;DHT22;8484;50.904;9.192;2023-08-07T15:34:01;18.20;99.90
16732;DHT22;8484;50.904;9.192;2023-08-07T15:36:28;18.20;99.90
16732;DHT22;8484;50.904;9.192;2023-08-07T15:38:55;18.60;99.90
16732;DHT22;8484;50.904;9.192;2023-08-07T15:41:22;19.10;99.90
16732;DHT22;8484;50.904;9.192;2023-08-07T15:43:49;19.20;99.90
16732;DHT22;8484;50.904;9.192;2023-08-07T15:46:16;19.60;99.90
16732;DHT22;8484;50.904;9.192;2023-08-07T15:48:43;18.90;99.90